Time;durP1;ratioP1;P1;durP2;ratioP2;P2;SDS_P1;SDS_P2;PMS_P1;PMS_P2;Temp;Humidity;BMP_temperature;BMP_pressure;BME280_temperature;BME280_humidity;BME280_pressure;Samples;Min_cycle;Max_cycle;Signal;HPM_P1;HPM_P2
2022/07/30 00:02:24;;;;;;;13.10;8.38;;;17.00;99.90;;;;;;5066629;28;20056;-73
2022/07/30 00:04:50;;;;;;;10.23;8.23;;;16.90;99.90;;;;;;5066321;28;20035;-73
2022/07/30 00:07:15;;;;;;;13.50;9.10;;;16.90;99.90;;;;;;5067178;28;20033;-72
2022/07/30 00:09:41;;;;;;;13.75;9.13;;;16.80;99.90;;;;;;5048036;28;20475;-72
2022/07/30 00:12:08;;;;;;;11.82;8.82;;;16.70;99.90;;;;;;5064827;28;20028;-72
2022/07/30 00:14:34;;;;;;;13.90;9.43;;;16.70;99.90;;;;;;5066098;28;20025;-72
2022/07/30 00:17:01;;;;;;;13.18;9.50;;;16.70;99.90;;;;;;5067754;28;20095;-72
2022/07/30 00:19:27;;;;;;;11.45;9.02;;;16.60;99.90;;;;;;5067813;28;20414;-72
2022/07/30 00:21:56;;;;;;;13.88;9.70;;;16.70;99.90;;;;;;5066727;28;20025;-73
2022/07/30 00:24:21;;;;;;;12.73;9.25;;;16.60;99.90;;;;;;5066845;28;20025;-72
2022/07/30 00:26:47;;;;;;;13.25;9.27;;;16.60;99.90;;;;;;5066729;28;20364;-73
2022/07/30 00:29:13;;;;;;;13.50;9.40;;;16.60;99.90;;;;;;5072032;28;20448;-71
2022/07/30 00:31:39;;;;;;;13.13;9.57;;;16.50;99.90;;;;;;5070638;28;20036;-71
2022/07/30 00:34:04;;;;;;;15.70;8.88;;;16.40;99.90;;;;;;5070242;28;20028;-71
2022/07/30 00:36:30;;;;;;;13.50;8.20;;;16.30;99.90;;;;;;5072259;28;20757;-73
2022/07/30 00:38:56;;;;;;;11.98;8.45;;;16.20;99.90;;;;;;5070918;28;20107;-73
2022/07/30 00:41:22;;;;;;;11.93;7.90;;;16.20;99.90;;;;;;5072497;28;20017;-72
2022/07/30 00:43:48;;;;;;;11.52;8.65;;;16.20;99.90;;;;;;5069801;28;20052;-72
2022/07/30 00:46:14;;;;;;;16.77;8.98;;;16.20;99.90;;;;;;5070804;28;20055;-73
2022/07/30 00:48:40;;;;;;;19.08;9.50;;;16.20;99.90;;;;;;5071158;28;20394;-72
2022/07/30 00:51:06;;;;;;;18.80;9.88;;;16.20;99.90;;;;;;5070643;28;20032;-72
2022/07/30 00:53:33;;;;;;;13.57;9.90;;;16.20;99.90;;;;;;5053421;28;20031;-72
2022/07/30 00:55:58;;;;;;;14.45;10.02;;;16.10;99.90;;;;;;5069020;28;20037;-73
2022/07/30 00:58:24;;;;;;;18.05;10.05;;;16.10;99.90;;;;;;5071936;28;20096;-73
2022/07/30 01:00:50;;;;;;;13.30;9.48;;;16.00;99.90;;;;;;5068625;28;20040;-72
2022/07/30 01:03:15;;;;;;;14.57;9.30;;;15.90;99.90;;;;;;5071551;28;20036;-73
2022/07/30 01:05:41;;;;;;;15.40;9.60;;;15.80;99.90;;;;;;5069689;28;20032;-73
2022/07/30 01:08:07;;;;;;;14.85;9.90;;;15.80;99.90;;;;;;5071228;28;20025;-72
2022/07/30 01:10:33;;;;;;;17.10;10.18;;;15.70;99.90;;;;;;5067930;28;20154;-73
2022/07/30 01:13:00;;;;;;;15.90;10.55;;;15.70;99.90;;;;;;5070803;28;20036;-73
2022/07/30 01:15:27;;;;;;;14.10;10.52;;;15.70;99.90;;;;;;5070425;28;20036;-70
2022/07/30 01:17:55;;;;;;;14.65;10.00;;;15.80;99.90;;;;;;5070827;28;20021;-73
2022/07/30 01:20:29;;;;;;;17.75;10.18;;;15.90;99.90;;;;;;5071187;28;20040;-71
2022/07/30 01:23:11;;;;;;;13.45;10.15;;;15.90;99.90;;;;;;5033267;28;20124;-72
2022/07/30 01:25:47;;;;;;;13.85;10.00;;;15.90;99.90;;;;;;5068056;28;20137;-72
2022/07/30 01:28:18;;;;;;;14.80;9.93;;;15.80;99.90;;;;;;5072148;28;20091;-72
2022/07/30 01:30:45;;;;;;;14.85;10.20;;;15.80;99.90;;;;;;5070051;28;20542;-72
2022/07/30 01:33:14;;;;;;;17.40;11.10;;;15.80;99.90;;;;;;5071106;28;20041;-73
2022/07/30 01:35:42;;;;;;;14.80;10.40;;;15.80;99.90;;;;;;5069730;28;20036;-71
2022/07/30 01:38:10;;;;;;;15.15;10.10;;;15.90;99.90;;;;;;5070875;28;20108;-72
2022/07/30 01:40:38;;;;;;;15.18;10.77;;;15.90;99.90;;;;;;5067748;28;20036;-72
2022/07/30 01:43:06;;;;;;;17.10;10.40;;;15.80;99.90;;;;;;5069481;28;20024;-73
2022/07/30 01:45:33;;;;;;;15.55;10.15;;;15.70;99.90;;;;;;5070808;28;20116;-72
2022/07/30 01:48:02;;;;;;;16.70;10.82;;;15.60;99.90;;;;;;5068411;28;20029;-71
2022/07/30 01:50:30;;;;;;;17.70;11.48;;;15.70;99.90;;;;;;5069991;28;20048;-72
2022/07/30 01:52:57;;;;;;;20.35;11.80;;;15.70;99.90;;;;;;5069555;28;20029;-72
2022/07/30 01:55:31;;;;;;;19.13;11.90;;;15.70;99.90;;;;;;5051557;28;20622;-73
2022/07/30 01:57:59;;;;;;;21.13;12.48;;;15.80;99.90;;;;;;5065354;28;20048;-72
2022/07/30 02:00:27;;;;;;;19.40;12.90;;;15.90;99.90;;;;;;5068921;28;20039;-71
2022/07/30 02:02:53;;;;;;;17.58;12.40;;;15.90;99.90;;;;;;5070896;28;20081;-73
2022/07/30 02:05:19;;;;;;;23.10;12.48;;;15.90;99.90;;;;;;5051494;28;20036;-71
2022/07/30 02:07:48;;;;;;;23.05;13.05;;;15.90;99.90;;;;;;5069635;28;20051;-72
2022/07/30 02:10:21;;;;;;;23.17;13.38;;;16.00;99.90;;;;;;5069726;28;20032;-72
2022/07/30 02:12:54;;;;;;;19.25;13.00;;;16.10;99.90;;;;;;5068496;28;20474;-72
2022/07/30 02:15:30;;;;;;;19.73;13.15;;;16.10;99.90;;;;;;5051123;28;20424;-72
2022/07/30 02:18:01;;;;;;;20.05;12.27;;;16.20;99.90;;;;;;5027941;28;20053;-72
2022/07/30 02:20:29;;;;;;;21.40;12.40;;;16.20;99.90;;;;;;5026990;28;20083;-73
2022/07/30 02:23:00;;;;;;;21.67;12.27;;;16.20;99.90;;;;;;5027882;28;20042;-72
2022/07/30 02:25:27;;;;;;;20.45;12.40;;;16.20;99.90;;;;;;5029459;28;20053;-71
2022/07/30 02:27:59;;;;;;;22.00;12.13;;;16.20;99.90;;;;;;5029867;28;20109;-72
2022/07/30 02:30:29;;;;;;;17.50;11.02;;;16.20;99.90;;;;;;5027494;28;20427;-71
2022/07/30 02:33:00;;;;;;;16.07;11.20;;;16.20;99.90;;;;;;5028974;28;20041;-72
2022/07/30 02:35:28;;;;;;;19.95;11.52;;;16.20;99.90;;;;;;5029981;28;20045;-72
2022/07/30 02:37:55;;;;;;;20.25;11.35;;;16.20;99.90;;;;;;5030422;28;20037;-72
2022/07/30 02:40:22;;;;;;;17.00;11.15;;;16.20;99.90;;;;;;5028969;28;20383;-72
2022/07/30 02:42:51;;;;;;;17.73;11.02;;;16.10;99.90;;;;;;5027276;28;20503;-72
2022/07/30 02:45:17;;;;;;;22.20;11.27;;;16.10;99.90;;;;;;5027187;28;20468;-71
2022/07/30 02:47:46;;;;;;;18.85;11.27;;;16.20;99.90;;;;;;5028500;28;20033;-72
2022/07/30 02:50:15;;;;;;;19.02;11.15;;;16.20;99.90;;;;;;5028913;28;20395;-73
2022/07/30 02:52:42;;;;;;;15.70;10.75;;;16.20;99.90;;;;;;5028559;28;20084;-73
2022/07/30 02:55:09;;;;;;;19.20;11.20;;;16.10;99.90;;;;;;5029297;28;20464;-73
2022/07/30 02:57:38;;;;;;;18.23;11.15;;;16.10;99.90;;;;;;5027815;28;20161;-72
2022/07/30 03:00:05;;;;;;;16.67;10.75;;;16.20;99.90;;;;;;5026997;28;20175;-72
2022/07/30 03:02:33;;;;;;;15.88;11.10;;;16.10;99.90;;;;;;5028993;28;20022;-72
2022/07/30 03:05:01;;;;;;;18.48;11.30;;;16.20;99.90;;;;;;5019838;28;20041;-71
2022/07/30 03:07:28;;;;;;;17.55;11.63;;;16.10;99.90;;;;;;5010318;28;20068;-72
2022/07/30 03:09:55;;;;;;;17.58;11.25;;;16.00;99.90;;;;;;5028509;28;20045;-73
2022/07/30 03:12:22;;;;;;;20.65;11.90;;;16.00;99.90;;;;;;5028748;28;20045;-72
2022/07/30 03:14:49;;;;;;;18.10;11.90;;;16.00;99.90;;;;;;5025382;28;20026;-72
2022/07/30 03:17:16;;;;;;;18.88;11.65;;;16.00;99.90;;;;;;5056655;28;20048;-73
2022/07/30 03:19:44;;;;;;;18.52;11.57;;;16.10;99.90;;;;;;5067858;28;20084;-72
2022/07/30 03:22:11;;;;;;;19.10;11.93;;;16.00;99.90;;;;;;5068155;28;20161;-72
2022/07/30 03:24:39;;;;;;;24.02;12.43;;;16.10;99.90;;;;;;5050445;28;20033;-71
2022/07/30 03:27:05;;;;;;;18.13;12.40;;;16.10;99.90;;;;;;5066968;28;20482;-71
2022/07/30 03:29:33;;;;;;;21.70;12.10;;;16.10;99.90;;;;;;5068823;28;20041;-72
2022/07/30 03:31:59;;;;;;;19.58;12.10;;;16.10;99.90;;;;;;5066990;28;20136;-72
2022/07/30 03:34:26;;;;;;;24.02;12.25;;;16.00;99.90;;;;;;5068257;28;20036;-71
2022/07/30 03:36:53;;;;;;;21.02;12.18;;;16.00;99.90;;;;;;5068691;28;20029;-72
2022/07/30 03:39:20;;;;;;;22.50;12.25;;;16.00;99.90;;;;;;5068167;28;20039;-73
2022/07/30 03:41:47;;;;;;;20.33;12.85;;;16.00;99.90;;;;;;5068281;28;20028;-71
2022/07/30 03:44:14;;;;;;;18.55;13.30;;;15.90;99.90;;;;;;5067626;28;20111;-73
2022/07/30 03:46:40;;;;;;;21.70;12.63;;;15.90;99.90;;;;;;5068138;28;20463;-72
2022/07/30 03:49:09;;;;;;;21.25;12.57;;;15.90;99.90;;;;;;5067835;28;20048;-72
2022/07/30 03:51:36;;;;;;;20.02;13.10;;;15.90;99.90;;;;;;5068338;28;20043;-71
2022/07/30 03:54:04;;;;;;;21.73;12.75;;;15.90;99.90;;;;;;5049239;28;20028;-73
2022/07/30 03:56:30;;;;;;;18.08;12.57;;;15.90;99.90;;;;;;5050439;28;20025;-72
2022/07/30 03:58:56;;;;;;;18.38;12.70;;;15.90;99.90;;;;;;5064085;28;20470;-70
2022/07/30 04:01:25;;;;;;;20.25;12.75;;;15.90;99.90;;;;;;5065430;28;20462;-72
2022/07/30 04:03:51;;;;;;;18.27;11.90;;;15.90;99.90;;;;;;5049400;28;20043;-72
2022/07/30 04:06:17;;;;;;;21.50;12.93;;;15.90;99.90;;;;;;5068161;28;20033;-71
2022/07/30 04:08:42;;;;;;;20.52;12.27;;;15.90;99.90;;;;;;5067421;28;20033;-71
2022/07/30 04:11:08;;;;;;;26.42;13.95;;;15.80;99.90;;;;;;5066939;28;20049;-72
2022/07/30 04:13:34;;;;;;;20.20;12.82;;;15.80;99.90;;;;;;5066665;28;20043;-70
2022/07/30 04:16:12;;;;;;;24.23;13.05;;;15.90;99.90;;;;;;5066830;28;20051;-71
2022/07/30 04:18:43;;;;;;;22.20;12.77;;;15.90;99.90;;;;;;5067204;28;20497;-72
2022/07/30 04:21:11;;;;;;;22.38;12.15;;;15.90;99.90;;;;;;5066607;28;20857;-72
2022/07/30 04:23:42;;;;;;;17.02;12.10;;;15.80;99.90;;;;;;5066588;28;20024;-72
2022/07/30 04:26:08;;;;;;;17.88;12.20;;;15.80;99.90;;;;;;5067272;28;20025;-71
2022/07/30 04:28:35;;;;;;;17.85;12.05;;;15.80;99.90;;;;;;5067176;28;20047;-72
2022/07/30 04:31:01;;;;;;;18.60;12.07;;;15.70;99.90;;;;;;5066041;28;20045;-72
2022/07/30 04:33:27;;;;;;;18.55;12.35;;;15.70;99.90;;;;;;5067494;28;20032;-71
2022/07/30 04:35:53;;;;;;;21.58;12.70;;;15.70;99.90;;;;;;5067331;28;20463;-73
2022/07/30 04:38:19;;;;;;;22.75;12.15;;;15.60;99.90;;;;;;5068057;28;20060;-71
2022/07/30 04:40:45;;;;;;;19.15;12.30;;;15.70;99.90;;;;;;5069078;28;20067;-71
2022/07/30 04:43:11;;;;;;;18.40;11.93;;;15.70;99.90;;;;;;5066109;28;20032;-71
2022/07/30 04:45:39;;;;;;;24.98;12.70;;;15.80;99.90;;;;;;5066915;28;20024;-71
2022/07/30 04:48:05;;;;;;;19.52;11.75;;;15.90;99.90;;;;;;5066135;28;20037;-72
2022/07/30 04:50:34;;;;;;;18.42;11.35;;;16.00;99.90;;;;;;5068589;28;20033;-74
2022/07/30 04:53:01;;;;;;;18.60;10.88;;;16.10;99.90;;;;;;5061371;28;20032;-73
2022/07/30 04:55:27;;;;;;;17.27;11.73;;;16.10;99.90;;;;;;5065260;28;20115;-72
2022/07/30 04:57:53;;;;;;;17.38;11.15;;;16.20;99.90;;;;;;5047962;28;20028;-73
2022/07/30 05:00:19;;;;;;;16.83;10.95;;;16.20;99.90;;;;;;5067641;28;20036;-73
2022/07/30 05:02:47;;;;;;;17.08;11.35;;;16.30;99.90;;;;;;5065440;28;20124;-73
2022/07/30 05:05:18;;;;;;;19.13;11.60;;;16.40;99.90;;;;;;5067250;28;20173;-73
2022/07/30 05:07:44;;;;;;;16.50;11.45;;;16.50;99.90;;;;;;5068304;28;20020;-72
2022/07/30 05:10:11;;;;;;;17.05;11.45;;;16.50;99.90;;;;;;5066656;28;20154;-73
2022/07/30 05:12:38;;;;;;;17.23;11.73;;;16.60;99.90;;;;;;5052898;28;20443;-72
2022/07/30 05:15:08;;;;;;;19.65;11.85;;;16.60;99.90;;;;;;5069957;28;20422;-71
2022/07/30 05:17:34;;;;;;;33.42;12.18;;;16.70;99.90;;;;;;5070411;28;20060;-74
2022/07/30 05:20:00;;;;;;;17.88;11.65;;;16.70;99.90;;;;;;5071410;28;20032;-73
2022/07/30 05:22:28;;;;;;;18.50;12.38;;;16.70;99.90;;;;;;5068918;28;20112;-72
2022/07/30 05:24:58;;;;;;;20.27;12.30;;;16.80;99.90;;;;;;5068385;28;20502;-74
2022/07/30 05:27:23;;;;;;;18.98;13.02;;;16.80;99.90;;;;;;5067927;28;20040;-73
2022/07/30 05:29:49;;;;;;;20.40;12.73;;;16.80;99.90;;;;;;5066628;28;20401;-73
2022/07/30 05:32:15;;;;;;;21.35;12.85;;;16.80;99.90;;;;;;5071693;28;20112;-73
2022/07/30 05:34:40;;;;;;;20.83;13.48;;;16.80;99.90;;;;;;5069834;28;20039;-71
2022/07/30 05:37:06;;;;;;;21.33;13.48;;;16.90;99.90;;;;;;5069486;28;20523;-72
2022/07/30 05:39:32;;;;;;;18.65;12.48;;;17.00;99.90;;;;;;5068080;28;20043;-71
2022/07/30 05:41:57;;;;;;;21.05;11.63;;;17.00;99.90;;;;;;5062621;28;20035;-72
2022/07/30 05:44:23;;;;;;;17.27;11.98;;;17.00;99.90;;;;;;5066568;28;20033;-74
2022/07/30 05:46:49;;;;;;;17.73;11.80;;;17.10;99.90;;;;;;5066052;28;20071;-73
2022/07/30 05:49:14;;;;;;;16.25;11.25;;;17.10;99.90;;;;;;5069817;28;20047;-73
2022/07/30 05:51:41;;;;;;;20.27;10.70;;;17.20;99.90;;;;;;5069956;28;20040;-72
2022/07/30 05:54:07;;;;;;;19.95;11.88;;;17.30;99.90;;;;;;5051973;28;20116;-74
2022/07/30 05:56:33;;;;;;;18.48;11.38;;;17.30;99.90;;;;;;5068609;28;20167;-73
2022/07/30 05:58:58;;;;;;;19.85;11.90;;;17.40;99.90;;;;;;5068134;28;20538;-73
2022/07/30 06:01:24;;;;;;;18.08;11.75;;;17.40;99.90;;;;;;5068585;28;20570;-74
2022/07/30 06:03:50;;;;;;;22.40;12.30;;;17.40;99.90;;;;;;5068731;28;20036;-74
2022/07/30 06:06:15;;;;;;;19.23;12.13;;;17.50;99.90;;;;;;5068361;28;20032;-74
2022/07/30 06:08:42;;;;;;;19.42;11.23;;;17.60;99.90;;;;;;5069511;28;20086;-74
2022/07/30 06:11:08;;;;;;;18.20;11.90;;;17.70;99.90;;;;;;5066473;28;20485;-74
2022/07/30 06:13:34;;;;;;;16.50;10.73;;;17.70;99.90;;;;;;5067452;28;20036;-74
2022/07/30 06:16:00;;;;;;;20.65;12.07;;;17.80;99.90;;;;;;5064605;28;20052;-76
2022/07/30 06:18:26;;;;;;;21.38;12.25;;;17.90;99.90;;;;;;5069788;28;20528;-75
2022/07/30 06:20:53;;;;;;;22.58;11.27;;;18.00;99.90;;;;;;5069626;28;20115;-76
2022/07/30 06:23:19;;;;;;;19.67;11.20;;;18.10;99.90;;;;;;5065812;28;20039;-75
2022/07/30 06:25:47;;;;;;;17.27;11.20;;;18.20;99.90;;;;;;5066979;28;20108;-74
2022/07/30 06:28:13;;;;;;;21.73;11.10;;;18.30;99.90;;;;;;5065886;28;20044;-76
2022/07/30 06:30:39;;;;;;;22.33;11.70;;;18.40;99.90;;;;;;5066909;28;20036;-77
2022/07/30 06:33:05;;;;;;;22.00;11.15;;;18.40;99.90;;;;;;5049464;28;20538;-74
2022/07/30 06:35:32;;;;;;;20.92;11.23;;;18.50;99.90;;;;;;5069102;28;20039;-76
2022/07/30 06:37:59;;;;;;;19.27;11.52;;;18.50;99.90;;;;;;5065939;28;20041;-78
2022/07/30 06:40:25;;;;;;;21.17;11.10;;;18.60;99.90;;;;;;5068771;28;20085;-74
2022/07/30 06:42:50;;;;;;;16.88;10.60;;;18.60;99.90;;;;;;5069773;28;20028;-76
2022/07/30 06:45:17;;;;;;;17.17;10.45;;;18.60;99.90;;;;;;5068531;28;20031;-72
2022/07/30 06:47:42;;;;;;;17.30;11.25;;;18.70;99.90;;;;;;5070898;28;20033;-71
2022/07/30 06:50:08;;;;;;;13.27;9.82;;;18.80;99.90;;;;;;5067148;28;20242;-71
2022/07/30 06:52:34;;;;;;;17.15;10.27;;;19.00;99.90;;;;;;5066571;28;20426;-76
2022/07/30 06:55:00;;;;;;;16.63;10.00;;;19.00;99.90;;;;;;5066400;28;20119;-76
2022/07/30 06:57:26;;;;;;;19.63;10.70;;;19.10;99.90;;;;;;5067020;28;20059;-73
2022/07/30 06:59:51;;;;;;;20.45;10.45;;;19.20;99.90;;;;;;5069375;28;20060;-73
2022/07/30 07:02:17;;;;;;;16.48;9.85;;;19.30;99.90;;;;;;5066803;28;20517;-75
2022/07/30 07:04:43;;;;;;;17.48;9.65;;;19.40;99.90;;;;;;5069274;28;20133;-74
2022/07/30 07:07:08;;;;;;;16.13;9.82;;;19.50;99.90;;;;;;5067223;28;20542;-72
2022/07/30 07:09:34;;;;;;;15.60;9.23;;;19.70;99.90;;;;;;5063922;28;20698;-75
2022/07/30 07:12:00;;;;;;;18.67;10.60;;;19.90;99.90;;;;;;5063150;28;20048;-73
2022/07/30 07:14:25;;;;;;;18.27;9.82;;;19.90;99.90;;;;;;5059829;28;20384;-74
2022/07/30 07:16:51;;;;;;;15.55;9.63;;;19.90;99.90;;;;;;5068830;28;20139;-73
2022/07/30 07:19:17;;;;;;;16.50;9.52;;;19.80;99.90;;;;;;5068187;28;20579;-74
2022/07/30 07:21:42;;;;;;;16.30;9.90;;;19.90;99.90;;;;;;5069972;28;20024;-73
2022/07/30 07:24:08;;;;;;;14.93;9.70;;;20.00;99.90;;;;;;5066156;28;20033;-73
2022/07/30 07:26:34;;;;;;;14.88;9.52;;;19.90;99.90;;;;;;5068002;28;20053;-73
2022/07/30 07:29:00;;;;;;;16.58;9.32;;;19.80;99.90;;;;;;5049197;28;20040;-76
2022/07/30 07:31:27;;;;;;;13.15;8.98;;;20.10;99.90;;;;;;5064995;28;20024;-72
2022/07/30 07:33:55;;;;;;;19.27;9.88;;;20.40;99.90;;;;;;5065625;28;20032;-73
2022/07/30 07:36:21;;;;;;;17.50;9.90;;;20.40;99.90;;;;;;5056911;28;20169;-72
2022/07/30 07:38:47;;;;;;;13.00;8.95;;;20.30;99.90;;;;;;5066896;28;20125;-73
2022/07/30 07:41:13;;;;;;;13.93;10.30;;;20.30;99.90;;;;;;5063509;28;20035;-73
2022/07/30 07:43:39;;;;;;;15.60;9.38;;;20.40;99.90;;;;;;5067730;28;20037;-73
2022/07/30 07:46:05;;;;;;;16.40;9.07;;;20.30;99.90;;;;;;5067506;28;20021;-73
2022/07/30 07:48:31;;;;;;;20.13;8.82;;;20.40;99.90;;;;;;5068645;28;20086;-72
2022/07/30 07:50:57;;;;;;;15.85;8.88;;;20.50;99.90;;;;;;5067060;28;20133;-73
2022/07/30 07:53:23;;;;;;;14.27;8.07;;;20.60;99.90;;;;;;5064724;28;20029;-72
2022/07/30 07:55:48;;;;;;;12.45;7.72;;;20.70;99.90;;;;;;5067852;28;20028;-72
2022/07/30 07:58:14;;;;;;;12.00;7.75;;;20.80;99.90;;;;;;5048270;28;20141;-73
2022/07/30 08:00:40;;;;;;;20.40;8.05;;;20.90;99.90;;;;;;5066356;28;20399;-71
2022/07/30 08:03:06;;;;;;;21.00;7.93;;;21.00;99.90;;;;;;5066947;28;20515;-74
2022/07/30 08:05:32;;;;;;;14.68;7.97;;;21.20;99.90;;;;;;5064681;28;20048;-74
2022/07/30 08:07:58;;;;;;;11.20;7.60;;;21.30;99.90;;;;;;5065673;28;20039;-72
2022/07/30 08:10:24;;;;;;;15.30;7.57;;;21.10;99.90;;;;;;5064452;28;20036;-73
2022/07/30 08:12:50;;;;;;;18.58;8.02;;;21.20;99.90;;;;;;5066115;28;20043;-72
2022/07/30 08:15:15;;;;;;;15.20;6.85;;;21.40;99.90;;;;;;5066406;28;20028;-71
2022/07/30 08:17:45;;;;;;;13.35;6.88;;;21.50;99.90;;;;;;5064120;28;20064;-72
2022/07/30 08:20:13;;;;;;;11.40;6.63;;;21.80;99.90;;;;;;5067319;28;20055;-71
2022/07/30 08:22:39;;;;;;;22.27;6.93;;;21.90;99.90;;;;;;5064461;28;20036;-71
2022/07/30 08:25:06;;;;;;;11.63;6.20;;;21.90;99.90;;;;;;5065425;28;20113;-71
2022/07/30 08:27:31;;;;;;;13.82;6.65;;;21.70;99.90;;;;;;5067577;28;20360;-72
2022/07/30 08:29:57;;;;;;;11.27;6.85;;;21.90;99.90;;;;;;5064805;28;20052;-72
2022/07/30 08:32:23;;;;;;;10.98;6.22;;;21.90;99.90;;;;;;5064485;28;20016;-72
2022/07/30 08:34:48;;;;;;;15.52;6.28;;;22.00;99.90;;;;;;5066196;28;20360;-71
2022/07/30 08:37:14;;;;;;;10.57;6.63;;;22.20;99.90;;;;;;5067813;28;20035;-71
2022/07/30 08:39:40;;;;;;;12.73;6.13;;;22.30;99.90;;;;;;5062428;28;20032;-73
2022/07/30 08:42:06;;;;;;;11.32;5.40;;;22.40;99.90;;;;;;5068039;28;20033;-72
2022/07/30 08:44:34;;;;;;;15.18;6.72;;;22.70;99.90;;;;;;5068002;28;20028;-72
2022/07/30 08:47:01;;;;;;;9.95;6.70;;;22.80;99.90;;;;;;5070135;28;20086;-72
2022/07/30 08:49:27;;;;;;;10.30;5.97;;;22.90;99.90;;;;;;5070573;28;20032;-73
2022/07/30 08:51:54;;;;;;;12.63;5.57;;;23.10;99.90;;;;;;5070682;28;20042;-72
2022/07/30 08:54:20;;;;;;;9.25;6.20;;;23.30;99.90;;;;;;5071838;28;20483;-72
2022/07/30 08:56:48;;;;;;;9.18;5.45;;;23.40;99.90;;;;;;5071319;28;20066;-72
2022/07/30 08:59:16;;;;;;;13.32;5.85;;;23.40;99.90;;;;;;5071117;28;20037;-71
2022/07/30 09:01:41;;;;;;;9.23;4.88;;;23.70;99.90;;;;;;5071725;28;20043;-72
2022/07/30 09:04:07;;;;;;;9.82;5.45;;;24.00;99.80;;;;;;5070913;28;20375;-71
2022/07/30 09:06:33;;;;;;;12.05;4.82;;;24.20;99.50;;;;;;5070857;28;20028;-73
2022/07/30 09:08:59;;;;;;;7.97;4.13;;;23.90;95.40;;;;;;5070878;28;20028;-72
2022/07/30 09:11:24;;;;;;;8.35;4.50;;;23.60;96.50;;;;;;5070136;28;20690;-71
2022/07/30 09:13:50;;;;;;;8.65;4.10;;;23.90;95.90;;;;;;5053459;28;20108;-72
2022/07/30 09:16:24;;;;;;;10.52;5.22;;;24.10;94.80;;;;;;5069112;28;20055;-72
2022/07/30 09:18:52;;;;;;;11.25;5.57;;;24.20;96.00;;;;;;5067680;28;20056;-72
2022/07/30 09:21:23;;;;;;;14.23;5.10;;;24.20;93.10;;;;;;5066801;28;20043;-70
2022/07/30 09:23:59;;;;;;;7.20;4.95;;;24.10;94.20;;;;;;5069892;28;20484;-72
2022/07/30 09:26:25;;;;;;;15.63;5.32;;;24.30;93.60;;;;;;5069077;28;20218;-70
2022/07/30 09:28:51;;;;;;;9.88;5.47;;;24.40;92.30;;;;;;5071005;28;20055;-71
2022/07/30 09:31:18;;;;;;;11.10;5.13;;;24.40;92.40;;;;;;5070849;28;20146;-71
2022/07/30 09:33:45;;;;;;;9.88;5.57;;;24.40;91.60;;;;;;5069882;28;20082;-71
2022/07/30 09:36:13;;;;;;;8.13;4.70;;;24.10;90.20;;;;;;5068245;28;20040;-71
2022/07/30 09:38:51;;;;;;;12.57;4.85;;;23.90;92.50;;;;;;5071726;28;20040;-70
2022/07/30 09:41:31;;;;;;;7.15;4.80;;;24.20;92.60;;;;;;5050945;28;20036;-72
2022/07/30 09:43:57;;;;;;;;;;;24.70;92.90;;;;;;5060804;28;20133;-73
2022/07/30 09:46:46;;;;;;;7.88;4.50;;;24.80;86.10;;;;;;5070174;28;19916;-73
2022/07/30 09:49:17;;;;;;;7.18;4.70;;;25.00;90.80;;;;;;5068845;28;20059;-71
2022/07/30 09:51:43;;;;;;;6.68;5.13;;;25.20;87.70;;;;;;5071662;28;20378;-71
2022/07/30 09:54:08;;;;;;;7.03;4.80;;;24.90;87.40;;;;;;5069353;28;20043;-71
2022/07/30 09:56:34;;;;;;;9.55;4.95;;;25.00;91.00;;;;;;5069506;28;20110;-75
2022/07/30 09:59:01;;;;;;;9.15;4.93;;;25.50;87.00;;;;;;5069584;28;20615;-72
2022/07/30 10:01:27;;;;;;;10.52;4.82;;;25.40;84.50;;;;;;5067069;28;20024;-72
2022/07/30 10:03:53;;;;;;;10.32;4.80;;;25.60;81.80;;;;;;5068970;28;20028;-72
2022/07/30 10:06:32;;;;;;;6.55;4.50;;;25.60;82.00;;;;;;5068805;28;20032;-73
2022/07/30 10:08:58;;;;;;;11.65;4.95;;;25.90;82.30;;;;;;5068927;28;20063;-72
2022/07/30 10:11:25;;;;;;;6.72;4.40;;;25.90;80.90;;;;;;5067218;28;20690;-72
2022/07/30 10:13:54;;;;;;;7.68;4.47;;;25.90;81.10;;;;;;5069811;28;20032;-73
2022/07/30 10:16:21;;;;;;;6.97;4.97;;;25.60;80.80;;;;;;5064904;28;20040;-72
2022/07/30 10:18:47;;;;;;;5.70;4.93;;;25.30;81.50;;;;;;5067418;28;20024;-73
2022/07/30 10:21:14;;;;;;;7.43;5.10;;;24.80;81.20;;;;;;5069059;28;20453;-72
2022/07/30 10:23:40;;;;;;;8.45;4.82;;;24.50;85.40;;;;;;5069986;28;20048;-72
2022/07/30 10:26:07;;;;;;;10.40;5.85;;;24.20;86.10;;;;;;5070354;28;20060;-71
2022/07/30 10:28:33;;;;;;;16.40;5.40;;;23.90;83.70;;;;;;5068528;28;20039;-72
2022/07/30 10:31:00;;;;;;;8.27;4.75;;;23.90;86.60;;;;;;5070165;28;20040;-73
2022/07/30 10:33:28;;;;;;;11.80;4.60;;;24.30;83.30;;;;;;5067654;28;20082;-70
2022/07/30 10:35:54;;;;;;;9.07;5.22;;;24.90;86.60;;;;;;5068484;28;20035;-72
2022/07/30 10:38:23;;;;;;;8.90;4.70;;;25.20;80.80;;;;;;5062321;28;20441;-73
2022/07/30 10:40:57;;;;;;;11.60;5.50;;;25.00;81.50;;;;;;5067896;28;20134;-72
2022/07/30 10:43:57;;;;;;;7.68;5.15;;;25.30;83.90;;;;;;5069943;28;20079;-71
2022/07/30 10:46:40;;;;;;;11.60;5.40;;;25.70;78.00;;;;;;5055037;28;20051;-72
2022/07/30 10:49:15;;;;;;;6.32;4.72;;;26.10;77.10;;;;;;5051635;28;20040;-71
2022/07/30 10:51:46;;;;;;;11.30;4.68;;;25.90;81.40;;;;;;5067072;28;21232;-72
2022/07/30 10:54:33;;;;;;;7.28;4.70;;;26.20;78.10;;;;;;5068768;28;20028;-73
2022/07/30 10:57:20;;;;;;;9.35;5.60;;;26.60;77.00;;;;;;5067621;28;20047;-71
2022/07/30 10:59:48;;;;;;;6.03;4.50;;;26.40;75.00;;;;;;5067435;28;20509;-73
2022/07/30 11:02:15;;;;;;;9.50;5.13;;;26.30;80.00;;;;;;5068982;28;20033;-71
2022/07/30 11:04:41;;;;;;;10.10;5.20;;;26.50;79.30;;;;;;5049739;28;20444;-71
2022/07/30 11:07:28;;;;;;;7.60;5.55;;;26.70;75.50;;;;;;5067606;28;20024;-72
2022/07/30 11:09:55;;;;;;;5.75;4.85;;;26.70;71.40;;;;;;5061859;28;20033;-73
2022/07/30 11:12:40;;;;;;;6.93;4.60;;;26.90;78.10;;;;;;5067934;28;20024;-73
2022/07/30 11:15:09;;;;;;;9.02;4.97;;;27.10;74.90;;;;;;5070157;28;20067;-73
2022/07/30 11:17:58;;;;;;;9.07;4.00;;;27.30;70.50;;;;;;5067344;28;20053;-73
2022/07/30 11:20:24;;;;;;;9.45;4.55;;;27.70;71.50;;;;;;5054807;28;20079;-74
2022/07/30 11:22:51;;;;;;;7.43;4.60;;;28.00;72.20;;;;;;5067364;28;20041;-73
2022/07/30 11:25:26;;;;;;;6.57;4.82;;;27.70;69.60;;;;;;5065321;28;20036;-71
2022/07/30 11:27:52;;;;;;;8.85;4.43;;;27.50;70.90;;;;;;5067439;28;20025;-72
2022/07/30 11:30:21;;;;;;;8.02;4.60;;;27.40;68.40;;;;;;5065583;28;20094;-71
2022/07/30 11:32:47;;;;;;;8.25;4.93;;;26.50;73.50;;;;;;5068422;28;20541;-72
2022/07/30 11:35:23;;;;;;;5.82;4.15;;;26.60;70.60;;;;;;5065687;28;20028;-72
2022/07/30 11:38:08;;;;;;;10.80;4.75;;;26.20;69.10;;;;;;5065262;28;20031;-70
2022/07/30 11:40:58;;;;;;;7.00;4.72;;;26.20;69.30;;;;;;5066781;28;20111;-71
2022/07/30 11:43:31;;;;;;;5.30;4.38;;;26.30;71.30;;;;;;5065223;28;20098;-72
2022/07/30 11:46:21;;;;;;;6.72;4.35;;;26.60;75.30;;;;;;5049298;28;20086;-70
2022/07/30 11:49:07;;;;;;;7.20;4.13;;;27.00;72.00;;;;;;5068952;28;20063;-70
2022/07/30 11:51:41;;;;;;;5.70;3.90;;;27.60;71.10;;;;;;5045915;28;20617;-72
2022/07/30 11:54:09;;;;;;;7.30;4.43;;;28.10;69.70;;;;;;5064668;28;20036;-72
2022/07/30 11:56:35;;;;;;;8.32;4.35;;;27.40;63.80;;;;;;5064606;28;20108;-71
2022/07/30 11:59:06;;;;;;;8.50;4.60;;;27.30;67.90;;;;;;5062863;28;20024;-70
2022/07/30 12:01:34;;;;;;;8.52;5.10;;;26.70;64.20;;;;;;5062185;28;20190;-71
2022/07/30 12:04:04;;;;;;;6.53;4.40;;;25.70;67.00;;;;;;5069229;28;20036;-71
2022/07/30 12:06:30;;;;;;;;;;;25.60;70.60;;;;;;5068998;28;20491;-74
2022/07/30 12:08:58;;;;;;;9.15;4.50;;;25.70;69.00;;;;;;5068227;28;20278;-72
2022/07/30 12:11:30;;;;;;;5.40;4.57;;;25.90;69.10;;;;;;5069301;28;20075;-73
2022/07/30 12:13:58;;;;;;;5.65;4.28;;;25.90;69.40;;;;;;5068897;28;20475;-71
2022/07/30 12:16:25;;;;;;;6.18;4.38;;;25.70;71.70;;;;;;5067672;28;20048;-73
2022/07/30 12:18:51;;;;;;;5.25;4.75;;;25.60;74.80;;;;;;5071970;28;20054;-73
2022/07/30 12:21:17;;;;;;;5.97;4.20;;;25.90;74.10;;;;;;5070256;28;20475;-70
2022/07/30 12:24:13;;;;;;;8.05;4.57;;;26.00;72.60;;;;;;5073169;28;20025;-72
2022/07/30 12:26:39;;;;;;;8.50;4.30;;;26.00;70.50;;;;;;5055548;28;20051;-73
2022/07/30 12:29:10;;;;;;;7.43;4.15;;;25.90;70.90;;;;;;5072452;28;20028;-72
2022/07/30 12:31:36;;;;;;;5.53;4.30;;;25.90;73.60;;;;;;5072486;28;20112;-71
2022/07/30 12:34:02;;;;;;;7.70;4.45;;;25.70;72.90;;;;;;5072283;28;20029;-72
2022/07/30 12:36:33;;;;;;;10.48;4.60;;;25.60;71.40;;;;;;5072353;28;20027;-73
2022/07/30 12:39:00;;;;;;;12.50;4.03;;;25.70;69.80;;;;;;5072932;28;20117;-73
2022/07/30 12:41:43;;;;;;;13.88;4.57;;;26.20;70.10;;;;;;5072413;28;20047;-73